createdAt,value
2023-05-25T00:00:00.478Z,13.47
2023-05-25T00:02:28.485Z,13.31
2023-05-25T00:04:58.416Z,13.32
2023-05-25T00:07:26.177Z,13.33
2023-05-25T00:09:53.920Z,13.33
2023-05-25T00:12:23.037Z,13.63
2023-05-25T00:14:50.844Z,13.56
2023-05-25T00:17:18.978Z,13.31
2023-05-25T00:19:48.494Z,13.10
2023-05-25T00:22:16.345Z,13.07
2023-05-25T00:24:46.232Z,13.16
2023-05-25T00:27:18.466Z,12.74
2023-05-25T00:29:51.030Z,12.96
2023-05-25T00:32:19.603Z,12.47
2023-05-25T00:34:47.507Z,12.40
2023-05-25T00:37:15.414Z,12.98
2023-05-25T00:39:45.744Z,12.96
2023-05-25T00:42:13.527Z,12.96
2023-05-25T00:44:41.741Z,12.74
2023-05-25T00:47:11.958Z,12.62
2023-05-25T00:49:39.819Z,12.51
2023-05-25T00:52:07.935Z,12.61
2023-05-25T00:54:37.684Z,12.38
2023-05-25T00:57:12.837Z,12.86
2023-05-25T00:59:45.614Z,12.89
2023-05-25T01:02:17.471Z,12.74
2023-05-25T01:04:46.996Z,12.57
2023-05-25T01:07:22.212Z,12.71
2023-05-25T01:09:54.316Z,12.50
2023-05-25T01:12:24.061Z,12.37
2023-05-25T01:14:56.001Z,12.08
2023-05-25T01:17:25.525Z,11.97
2023-05-25T01:20:09.763Z,11.93
2023-05-25T01:22:48.219Z,11.58
2023-05-25T01:25:26.221Z,11.91
2023-05-25T01:27:59.008Z,11.82
2023-05-25T01:30:27.761Z,11.84
2023-05-25T01:32:55.804Z,11.70
2023-05-25T01:35:25.828Z,11.91
2023-05-25T01:37:55.656Z,11.91
2023-05-25T01:40:23.396Z,11.91
2023-05-25T01:42:51.516Z,11.95
2023-05-25T01:45:19.521Z,11.79
2023-05-25T01:47:52.275Z,11.76
2023-05-25T01:50:27.991Z,11.49
2023-05-25T01:53:03.232Z,10.36
2023-05-25T01:55:34.273Z,11.74
2023-05-25T01:58:02.980Z,11.89
2023-05-25T02:00:35.329Z,11.92
2023-05-25T02:03:03.652Z,11.79
2023-05-25T02:05:34.179Z,11.82
2023-05-25T02:08:03.716Z,11.91
2023-05-25T02:10:36.829Z,11.95
2023-05-25T02:13:04.798Z,11.72
2023-05-25T02:15:45.722Z,12.01
2023-05-25T02:18:16.830Z,12.26
2023-05-25T02:20:45.465Z,11.95
2023-05-25T02:23:15.437Z,12.21
2023-05-25T02:25:52.908Z,12.42
2023-05-25T02:28:22.895Z,12.51
2023-05-25T02:30:53.631Z,12.64
2023-05-25T02:33:23.786Z,12.63
2023-05-25T02:35:51.957Z,12.78
2023-05-25T02:38:26.428Z,12.90
2023-05-25T02:40:57.075Z,12.66
2023-05-25T02:43:27.895Z,12.69
2023-05-25T02:45:57.144Z,12.60
2023-05-25T02:48:25.757Z,12.69
2023-05-25T02:50:53.807Z,12.74
2023-05-25T02:53:26.339Z,12.88
2023-05-25T02:56:06.270Z,12.77
2023-05-25T02:58:37.243Z,12.77
2023-05-25T03:01:05.538Z,12.83
2023-05-25T03:03:33.801Z,12.72
2023-05-25T03:06:06.990Z,12.93
2023-05-25T03:08:36.435Z,12.75
2023-05-25T03:11:04.854Z,12.68
2023-05-25T03:13:35.316Z,12.24
2023-05-25T03:16:03.103Z,12.53
2023-05-25T03:18:31.124Z,12.70
2023-05-25T03:21:03.281Z,12.72
2023-05-25T03:23:33.124Z,12.60
2023-05-25T03:26:05.366Z,12.75
2023-05-25T03:28:33.468Z,11.41
2023-05-25T03:31:06.488Z,12.78
2023-05-25T03:33:34.420Z,12.61
2023-05-25T03:36:02.651Z,12.71
2023-05-25T03:38:30.533Z,12.56
2023-05-25T03:41:00.444Z,12.66
2023-05-25T03:43:29.601Z,12.46
2023-05-25T03:46:00.650Z,12.71
2023-05-25T03:48:31.348Z,12.85
2023-05-25T03:50:59.171Z,12.91
2023-05-25T03:53:26.909Z,12.99
2023-05-25T03:55:55.119Z,13.12
2023-05-25T03:58:25.232Z,13.54
2023-05-25T04:00:56.307Z,13.56
2023-05-25T04:03:29.837Z,13.39
2023-05-25T04:06:02.360Z,13.29
2023-05-25T04:08:30.244Z,13.28
2023-05-25T04:11:01.194Z,13.74
2023-05-25T04:13:29.305Z,14.41
2023-05-25T04:15:58.622Z,14.64
2023-05-25T04:18:31.515Z,14.55
2023-05-25T04:21:02.088Z,14.73
2023-05-25T04:23:29.828Z,14.59
2023-05-25T04:26:00.544Z,14.18
2023-05-25T04:28:33.354Z,13.77
2023-05-25T04:31:03.783Z,13.44
2023-05-25T04:33:38.551Z,13.15
2023-05-25T04:36:11.038Z,13.10
2023-05-25T04:38:38.909Z,12.86
2023-05-25T04:41:12.007Z,12.83
2023-05-25T04:43:49.618Z,13.02
2023-05-25T04:46:27.181Z,13.16
2023-05-25T04:48:55.737Z,13.32
2023-05-25T04:51:23.538Z,12.87
2023-05-25T04:53:52.274Z,13.14
2023-05-25T04:56:28.973Z,13.11
2023-05-25T04:58:59.376Z,13.33
2023-05-25T05:01:29.234Z,13.38
2023-05-25T05:03:57.327Z,13.57
2023-05-25T05:06:25.949Z,13.82
2023-05-25T05:08:53.747Z,14.12
2023-05-25T05:11:21.688Z,14.45
2023-05-25T05:13:49.543Z,14.32
2023-05-25T05:16:19.959Z,14.29
2023-05-25T05:18:55.518Z,14.03
2023-05-25T05:21:23.995Z,14.02
2023-05-25T05:23:51.799Z,14.13
2023-05-25T05:26:31.528Z,14.31
2023-05-25T05:29:04.686Z,14.28
2023-05-25T05:31:32.784Z,13.84
2023-05-25T05:34:04.653Z,14.40
2023-05-25T05:36:45.167Z,14.71
2023-05-25T05:39:23.253Z,14.92
2023-05-25T05:41:53.429Z,14.59
2023-05-25T05:44:23.075Z,14.60
2023-05-25T05:46:57.819Z,14.29
2023-05-25T05:49:29.412Z,14.42
2023-05-25T05:52:03.236Z,14.64
2023-05-25T05:54:31.096Z,14.38
2023-05-25T05:57:00.231Z,14.55
2023-05-25T05:59:28.271Z,14.65
2023-05-25T06:01:56.106Z,14.99
2023-05-25T06:04:29.157Z,15.05
2023-05-25T06:06:59.201Z,15.20
2023-05-25T06:09:27.542Z,15.32
2023-05-25T06:11:56.080Z,14.41
2023-05-25T06:14:28.175Z,14.13
2023-05-25T06:16:57.391Z,14.12
2023-05-25T06:19:29.359Z,14.12
2023-05-25T06:22:00.045Z,14.26
2023-05-25T06:24:31.385Z,14.31
2023-05-25T06:27:07.938Z,14.45
2023-05-25T06:29:35.764Z,14.14
2023-05-25T06:32:03.889Z,14.15
2023-05-25T06:34:34.485Z,14.19
2023-05-25T06:37:04.050Z,13.77
2023-05-25T06:39:34.188Z,14.36
2023-05-25T06:42:03.421Z,14.59
2023-05-25T06:44:31.830Z,14.61
2023-05-25T06:46:59.665Z,14.34
2023-05-25T06:49:32.541Z,14.16
2023-05-25T06:52:08.165Z,14.80
2023-05-25T06:54:38.702Z,14.76
2023-05-25T06:57:07.080Z,14.50
2023-05-25T06:59:35.275Z,14.88
2023-05-25T07:02:03.296Z,14.92
2023-05-25T07:04:37.708Z,14.62
2023-05-25T07:07:07.233Z,14.33
2023-05-25T07:09:38.123Z,14.46
2023-05-25T07:12:07.576Z,14.21
2023-05-25T07:14:36.118Z,14.22
2023-05-25T07:17:04.471Z,14.59
2023-05-25T07:19:32.562Z,14.35
2023-05-25T07:22:00.466Z,14.47
2023-05-25T07:24:30.654Z,14.70
2023-05-25T07:26:58.609Z,14.58
2023-05-25T07:29:30.106Z,14.44
2023-05-25T07:31:58.431Z,14.33
2023-05-25T07:34:28.075Z,14.69
2023-05-25T07:36:56.119Z,14.72
2023-05-25T07:39:24.620Z,14.63
2023-05-25T07:41:56.530Z,14.44
2023-05-25T07:44:24.340Z,14.42
2023-05-25T07:46:54.760Z,14.91
2023-05-25T07:49:23.052Z,14.58
2023-05-25T07:51:51.567Z,14.53
2023-05-25T07:54:19.449Z,15.02
2023-05-25T07:56:49.874Z,15.35
2023-05-25T07:59:30.467Z,15.31
2023-05-25T08:02:00.550Z,15.23
2023-05-25T08:04:37.525Z,14.49
2023-05-25T08:07:05.871Z,15.50
2023-05-25T08:09:33.872Z,15.04
2023-05-25T08:12:27.300Z,14.76
2023-05-25T08:14:55.309Z,15.79
2023-05-25T08:17:23.392Z,15.97
2023-05-25T08:19:51.347Z,16.05
2023-05-25T08:22:19.198Z,15.81
2023-05-25T08:24:55.028Z,15.95
2023-05-25T08:27:25.252Z,16.30
2023-05-25T08:29:54.406Z,16.18
2023-05-25T08:32:25.166Z,16.24
2023-05-25T08:34:56.328Z,16.14
2023-05-25T08:37:27.306Z,16.20
2023-05-25T08:39:55.435Z,16.76
2023-05-25T08:42:26.329Z,16.31
2023-05-25T08:44:57.049Z,16.14
2023-05-25T08:47:26.331Z,16.55
2023-05-25T08:49:55.657Z,16.09
2023-05-25T08:52:24.446Z,16.16
2023-05-25T08:54:55.410Z,16.59
2023-05-25T08:57:29.348Z,16.87
2023-05-25T09:00:07.490Z,16.46
2023-05-25T09:02:45.860Z,16.51
2023-05-25T09:05:17.624Z,16.49
2023-05-25T09:07:48.324Z,16.70
2023-05-25T09:10:18.923Z,16.74
2023-05-25T09:12:48.165Z,16.63
2023-05-25T09:15:18.509Z,17.44
2023-05-25T09:17:46.439Z,17.27
2023-05-25T09:20:14.946Z,17.31
2023-05-25T09:22:43.326Z,16.81
2023-05-25T09:25:12.614Z,17.08
2023-05-25T09:27:45.684Z,17.49
2023-05-25T09:30:21.210Z,17.46
2023-05-25T09:32:50.334Z,17.86
2023-05-25T09:35:18.601Z,18.18
2023-05-25T09:37:54.779Z,17.61
2023-05-25T09:40:22.948Z,17.91
2023-05-25T09:42:54.746Z,18.22
2023-05-25T09:45:24.517Z,17.77
2023-05-25T09:47:55.951Z,17.63
2023-05-25T09:50:25.568Z,17.94
2023-05-25T09:52:59.589Z,17.59
2023-05-25T09:55:40.054Z,18.01
2023-05-25T09:58:14.647Z,18.25
2023-05-25T10:00:46.764Z,17.87
2023-05-25T10:03:15.961Z,18.10
2023-05-25T10:05:46.533Z,18.56
2023-05-25T10:08:17.986Z,18.60
2023-05-25T10:10:47.475Z,18.51
2023-05-25T10:13:15.706Z,18.21
2023-05-25T10:15:46.875Z,18.36
2023-05-25T10:18:15.754Z,18.64
2023-05-25T10:20:48.804Z,18.83
2023-05-25T10:23:26.517Z,18.92
2023-05-25T10:25:58.384Z,19.39
2023-05-25T10:28:30.183Z,18.90
2023-05-25T10:31:00.884Z,19.08
2023-05-25T10:36:09.527Z,19.26
2023-05-25T10:38:40.634Z,19.49
2023-05-25T10:41:11.455Z,19.53
2023-05-25T10:43:40.377Z,19.48
2023-05-25T10:46:09.919Z,19.44
2023-05-25T10:48:39.173Z,19.05
2023-05-25T10:51:09.394Z,19.39
2023-05-25T10:53:39.048Z,19.32
2023-05-25T10:56:12.776Z,19.33
2023-05-25T10:58:42.825Z,19.93
2023-05-25T11:01:18.793Z,20.29
2023-05-25T11:03:54.028Z,20.38
2023-05-25T11:06:23.836Z,20.40
2023-05-25T11:08:56.362Z,19.70
2023-05-25T11:12:03.783Z,19.92
2023-05-25T11:14:33.055Z,19.61
2023-05-25T11:17:11.921Z,19.67
2023-05-25T11:19:41.337Z,19.98
2023-05-25T11:22:19.225Z,20.85
2023-05-25T11:24:48.108Z,20.89
2023-05-25T11:27:16.290Z,20.30
2023-05-25T11:29:45.290Z,20.51
2023-05-25T11:32:16.315Z,20.30
2023-05-25T11:34:46.832Z,20.28
2023-05-25T11:37:21.256Z,20.59
2023-05-25T11:39:51.630Z,20.70
2023-05-25T11:42:21.493Z,21.40
2023-05-25T11:45:01.623Z,20.67
2023-05-25T11:47:33.210Z,20.68
2023-05-25T11:50:06.347Z,20.73
2023-05-25T11:52:36.811Z,20.82
2023-05-25T11:55:14.545Z,20.86
2023-05-25T11:57:45.535Z,21.07
2023-05-25T12:00:14.721Z,20.95
2023-05-25T12:02:44.117Z,21.22
2023-05-25T12:05:12.311Z,21.15
2023-05-25T12:07:44.433Z,21.16
2023-05-25T12:10:13.457Z,21.20
2023-05-25T12:12:45.369Z,21.24
2023-05-25T12:15:19.037Z,21.36
2023-05-25T12:17:52.290Z,21.93
2023-05-25T12:20:20.851Z,22.07
2023-05-25T12:22:49.437Z,21.91
2023-05-25T12:25:24.878Z,21.10
2023-05-25T12:28:13.664Z,21.38
2023-05-25T12:30:42.235Z,21.39
2023-05-25T12:33:14.960Z,21.67
2023-05-25T12:35:47.546Z,21.78
2023-05-25T12:38:28.879Z,21.09
2023-05-25T12:41:06.942Z,21.43
2023-05-25T12:43:42.272Z,21.53
2023-05-25T12:46:13.250Z,21.25
2023-05-25T12:48:43.907Z,21.77
2023-05-25T12:51:14.661Z,22.08
2023-05-25T12:53:54.154Z,22.42
2023-05-25T12:56:22.743Z,21.71
2023-05-25T12:58:50.582Z,21.39
2023-05-25T13:01:23.283Z,21.69
2023-05-25T13:03:56.684Z,21.53
2023-05-25T13:06:24.474Z,21.12
2023-05-25T13:09:01.403Z,21.61
2023-05-25T13:11:34.170Z,22.59
2023-05-25T13:14:01.989Z,22.75
2023-05-25T13:16:32.077Z,22.04
2023-05-25T13:19:02.380Z,21.27
2023-05-25T13:21:30.726Z,21.74
2023-05-25T13:24:11.449Z,22.12
2023-05-25T13:26:40.105Z,22.27
2023-05-25T13:29:08.170Z,21.85
2023-05-25T13:31:42.613Z,21.80
2023-05-25T13:34:12.182Z,21.75
2023-05-25T13:36:39.988Z,22.58
2023-05-25T13:39:13.084Z,23.21
2023-05-25T13:41:41.944Z,23.32
2023-05-25T13:44:11.203Z,23.33
2023-05-25T13:46:43.773Z,23.90
2023-05-25T13:49:15.349Z,23.15
2023-05-25T13:51:45.733Z,22.65
2023-05-25T13:54:13.872Z,22.47
2023-05-25T13:56:43.623Z,22.85
2023-05-25T13:59:14.291Z,22.78
2023-05-25T14:01:42.372Z,22.35
2023-05-25T14:04:11.756Z,22.48
2023-05-25T14:06:41.237Z,23.24
2023-05-25T14:09:10.035Z,22.45
2023-05-25T14:11:38.062Z,22.70
2023-05-25T14:14:19.449Z,22.72
2023-05-25T14:16:58.040Z,23.79
2023-05-25T14:19:33.092Z,23.39
2023-05-25T14:22:13.152Z,22.39
2023-05-25T14:24:42.378Z,22.45
2023-05-25T14:27:15.442Z,22.58
2023-05-25T14:29:48.507Z,22.41
2023-05-25T14:32:17.194Z,22.15
2023-05-25T14:34:45.946Z,22.76
2023-05-25T14:37:15.120Z,22.87
2023-05-25T14:39:42.887Z,22.84
2023-05-25T14:42:15.694Z,22.91
2023-05-25T14:44:46.918Z,22.36
2023-05-25T14:47:16.943Z,22.51
2023-05-25T14:49:47.696Z,22.46
2023-05-25T14:52:17.127Z,23.12
2023-05-25T14:54:52.989Z,23.06
2023-05-25T14:57:20.867Z,23.26
2023-05-25T14:59:48.726Z,23.70
2023-05-25T15:02:16.507Z,23.40
2023-05-25T15:04:44.438Z,23.04
2023-05-25T15:07:13.082Z,23.50
2023-05-25T15:09:46.052Z,24.00
2023-05-25T15:12:14.919Z,23.91
2023-05-25T15:14:43.048Z,23.60
2023-05-25T15:17:13.588Z,23.45
2023-05-25T15:19:41.455Z,23.01
2023-05-25T15:22:13.669Z,23.00
2023-05-25T15:24:41.486Z,23.69
2023-05-25T15:27:10.703Z,23.40
2023-05-25T15:29:38.462Z,23.09
2023-05-25T15:32:07.927Z,23.52
2023-05-25T15:34:38.878Z,23.02
2023-05-25T15:37:11.911Z,23.13
2023-05-25T15:39:40.812Z,23.00
2023-05-25T15:42:10.326Z,23.20
2023-05-25T15:44:38.238Z,23.56
2023-05-25T15:47:08.992Z,23.42
2023-05-25T15:49:37.257Z,23.35
2023-05-25T15:52:06.642Z,23.78
2023-05-25T15:54:34.525Z,23.73
2023-05-25T15:57:03.533Z,23.41
2023-05-25T15:59:32.996Z,23.48
2023-05-25T16:02:01.006Z,23.34
2023-05-25T16:04:29.989Z,23.54
2023-05-25T16:07:00.131Z,23.54
2023-05-25T16:09:30.504Z,23.45
2023-05-25T16:12:02.456Z,23.60
2023-05-25T16:14:33.342Z,23.46
2023-05-25T16:17:03.108Z,23.29
2023-05-25T16:19:30.926Z,23.17
2023-05-25T16:22:02.685Z,23.32
2023-05-25T16:24:30.942Z,23.17
2023-05-25T16:27:02.663Z,23.33
2023-05-25T16:29:33.324Z,23.31
2023-05-25T16:32:03.046Z,23.44
2023-05-25T16:34:32.420Z,23.28
2023-05-25T16:37:00.258Z,23.33
2023-05-25T16:39:28.349Z,23.29
2023-05-25T16:41:56.950Z,23.27
2023-05-25T16:44:24.917Z,23.02
2023-05-25T16:46:54.542Z,23.33
2023-05-25T16:49:23.779Z,23.41
2023-05-25T16:51:56.871Z,23.14
2023-05-25T16:54:24.962Z,22.99
2023-05-25T16:56:52.762Z,22.92
2023-05-25T16:59:20.600Z,23.08
2023-05-25T17:01:51.233Z,23.16
2023-05-25T17:04:19.183Z,22.51
2023-05-25T17:06:52.013Z,22.77
2023-05-25T17:09:29.576Z,22.44
2023-05-25T17:12:02.003Z,22.37
2023-05-25T17:14:30.390Z,22.54
2023-05-25T17:17:07.278Z,22.37
2023-05-25T17:19:55.464Z,22.40
2023-05-25T17:22:25.063Z,22.72
2023-05-25T17:24:52.958Z,22.65
2023-05-25T17:27:21.091Z,22.57
2023-05-25T17:29:59.246Z,22.47
2023-05-25T17:32:28.212Z,22.03
2023-05-25T17:34:57.881Z,21.56
2023-05-25T17:37:29.824Z,21.93
2023-05-25T17:39:59.621Z,21.81
2023-05-25T17:42:27.719Z,21.61
2023-05-25T17:44:59.081Z,21.53
2023-05-25T17:47:35.095Z,21.72
2023-05-25T17:50:05.916Z,22.08
2023-05-25T17:52:35.179Z,21.77
2023-05-25T17:55:03.023Z,21.88
2023-05-25T17:57:34.011Z,21.95
2023-05-25T18:00:04.496Z,22.03
2023-05-25T18:02:34.139Z,21.78
2023-05-25T18:05:02.363Z,21.70
2023-05-25T18:07:31.390Z,21.43
2023-05-25T18:10:03.565Z,21.70
2023-05-25T18:12:34.128Z,21.70
2023-05-25T18:15:04.219Z,21.70
2023-05-25T18:17:32.232Z,21.38
2023-05-25T18:20:02.330Z,21.58
2023-05-25T18:22:30.273Z,21.44
2023-05-25T18:24:58.301Z,21.45
2023-05-25T18:27:32.026Z,21.44
2023-05-25T18:29:59.948Z,21.20
2023-05-25T18:32:27.876Z,21.39
2023-05-25T18:34:58.906Z,21.37
2023-05-25T18:37:31.570Z,21.39
2023-05-25T18:39:59.357Z,21.34
2023-05-25T18:42:32.866Z,21.29
2023-05-25T18:45:03.200Z,21.38
2023-05-25T18:47:34.059Z,21.35
2023-05-25T18:50:06.722Z,21.39
2023-05-25T18:52:34.482Z,21.30
2023-05-25T18:55:08.959Z,20.91
2023-05-25T18:57:39.840Z,21.12
2023-05-25T19:00:12.208Z,21.08
2023-05-25T19:02:40.258Z,21.09
2023-05-25T19:05:11.929Z,21.12
2023-05-25T19:07:54.840Z,21.13
2023-05-25T19:10:27.036Z,21.19
2023-05-25T19:12:57.127Z,21.27
2023-05-25T19:15:30.708Z,21.20
2023-05-25T19:17:58.728Z,21.15
2023-05-25T19:20:28.121Z,21.38
2023-05-25T19:22:59.190Z,21.31
2023-05-25T19:25:26.982Z,21.38
2023-05-25T19:28:01.426Z,21.34
2023-05-25T19:30:32.220Z,21.25
2023-05-25T19:33:04.076Z,21.24
2023-05-25T19:35:35.750Z,20.98
2023-05-25T19:38:04.141Z,20.94
2023-05-25T19:40:33.747Z,20.90
2023-05-25T19:43:06.382Z,20.95
2023-05-25T19:45:35.782Z,21.06
2023-05-25T19:48:09.487Z,20.85
2023-05-25T19:50:37.405Z,20.76
2023-05-25T19:53:06.463Z,20.75
2023-05-25T19:55:36.733Z,20.80
2023-05-25T19:58:11.149Z,20.86
2023-05-25T20:00:39.813Z,20.65
2023-05-25T20:03:08.079Z,20.78
2023-05-25T20:05:42.197Z,20.57
2023-05-25T20:08:10.095Z,20.32
2023-05-25T20:10:47.143Z,20.02
2023-05-25T20:13:34.181Z,20.05
2023-05-25T20:16:02.389Z,20.09
2023-05-25T20:18:30.160Z,20.10
2023-05-25T20:21:00.675Z,19.91
2023-05-25T20:23:38.054Z,19.98
2023-05-25T20:26:08.683Z,19.98
2023-05-25T20:28:38.688Z,19.84
2023-05-25T20:31:06.809Z,19.82
2023-05-25T20:33:40.377Z,19.91
2023-05-25T20:36:15.627Z,19.83
2023-05-25T20:38:44.899Z,19.80
2023-05-25T20:41:14.546Z,19.88
2023-05-25T20:43:44.044Z,19.82
2023-05-25T20:46:12.504Z,19.77
2023-05-25T20:48:41.051Z,19.90
2023-05-25T20:51:16.057Z,19.74
2023-05-25T20:53:46.960Z,19.78
2023-05-25T20:56:14.905Z,19.77
2023-05-25T20:58:47.113Z,19.72
2023-05-25T21:01:15.363Z,19.64
2023-05-25T21:03:45.897Z,19.41
2023-05-25T21:06:15.655Z,19.34
2023-05-25T21:08:44.030Z,19.44
2023-05-25T21:11:12.000Z,19.46
2023-05-25T21:13:42.736Z,19.49
2023-05-25T21:16:13.466Z,19.41
2023-05-25T21:18:44.089Z,19.28
2023-05-25T21:21:12.074Z,19.17
2023-05-25T21:23:39.896Z,19.46
2023-05-25T21:26:07.700Z,19.31
2023-05-25T21:28:35.512Z,19.27
2023-05-25T21:31:03.371Z,19.24
2023-05-25T21:33:35.836Z,19.19
2023-05-25T21:36:07.295Z,19.22
2023-05-25T21:38:37.897Z,19.24
2023-05-25T21:41:06.049Z,19.20
2023-05-25T21:43:33.993Z,18.96
2023-05-25T21:46:04.229Z,19.16
2023-05-25T21:48:33.672Z,19.09
2023-05-25T21:51:01.979Z,19.08
2023-05-25T21:53:31.308Z,18.85
2023-05-25T21:55:59.392Z,19.10
2023-05-25T21:58:27.355Z,19.04
2023-05-25T22:00:58.338Z,19.00
2023-05-25T22:03:30.997Z,18.88
2023-05-25T22:06:02.738Z,18.97
2023-05-25T22:08:36.392Z,18.93
2023-05-25T22:11:06.177Z,18.87
2023-05-25T22:13:34.091Z,18.78
2023-05-25T22:16:04.637Z,18.62
2023-05-25T22:18:38.574Z,18.50
2023-05-25T22:21:08.047Z,18.51
2023-05-25T22:23:47.943Z,18.55
2023-05-25T22:26:22.795Z,18.59
2023-05-25T22:28:53.192Z,18.40
2023-05-25T22:31:24.873Z,18.49
2023-05-25T22:33:52.818Z,18.35
2023-05-25T22:36:22.254Z,18.27
2023-05-25T22:38:53.377Z,18.16
2023-05-25T22:41:21.488Z,18.15
2023-05-25T22:43:49.362Z,18.02
2023-05-25T22:46:20.559Z,18.02
2023-05-25T22:48:53.899Z,16.27
2023-05-25T22:51:23.611Z,17.92
2023-05-25T22:53:51.444Z,17.90
2023-05-25T22:56:22.738Z,17.85
2023-05-25T22:58:52.104Z,17.79
2023-05-25T23:01:20.978Z,17.73
2023-05-25T23:03:48.994Z,17.67
2023-05-25T23:06:17.098Z,17.35
2023-05-25T23:08:53.017Z,17.60
2023-05-25T23:11:23.767Z,15.77
2023-05-25T23:13:51.778Z,17.47
2023-05-25T23:16:20.455Z,17.42
2023-05-25T23:18:52.042Z,17.33
2023-05-25T23:21:34.033Z,17.31
2023-05-25T23:24:03.253Z,17.35
2023-05-25T23:26:31.093Z,17.42
2023-05-25T23:28:58.853Z,16.98
2023-05-25T23:31:34.802Z,17.12
2023-05-25T23:34:04.606Z,17.07
2023-05-25T23:36:36.275Z,16.91
2023-05-25T23:39:08.245Z,16.97
2023-05-25T23:41:36.595Z,16.79
2023-05-25T23:44:04.729Z,17.14
2023-05-25T23:46:34.654Z,17.21
2023-05-25T23:49:02.449Z,17.45
2023-05-25T23:51:30.220Z,17.66
2023-05-25T23:53:58.104Z,17.29
2023-05-25T23:56:29.219Z,17.30
2023-05-25T23:59:00.068Z,17.23
